x

Folly Island, Sc (fbis1) Weather Station

5:00pm - Mon 20th Oct 2014 All times are EDT. -4 hours from GMT.

  • Wind
    8mph, 9mph gusts
  • Air Temp 73°f
  • Sea Pressure 1016.4mb
  • Folly Island, Sc
  • Folly Island, Sc

More Historic Weather Station data

Upgrade to MSW Pro to gain access to the past 30 days of data for over 8000 Wavebouys and Weather Stations around the globe.

Join Pro

Comparision Forecast

View Surf forecast
   
Mon 10/20 5:00pm 8 9 mph 1016.4mb 73f
4:00pm 7 8 mph 1016.9mb 73f
3:00pm 7 8 mph 1017.3mb 72f
2:00pm 7 8 mph 1018.2mb 71f
1:00pm 8 9 mph 1019.4mb 71f
12:00pm 9 10 mph 1020.4mb 71f
11:00am 7 8 mph 1020.9mb 68f
10:00am 8 10 mph 1021mb 67f
9:00am 9 10 mph 1020.9mb 64f
8:00am 9 10 mph 1020.5mb 62f
7:00am 11 13 mph 1020.2mb 64f
6:00am 8 10 mph 1020.2mb 65f
5:00am 6 9 mph 1020mb 64f
4:00am 8 11 mph 1020.3mb 64f
3:00am 5 6 mph 1020.5mb 61f
2:00am 6 7 mph 1020.8mb 61f
1:00am 6 8 mph 1020.5mb 63f
12:00am 3 6 mph 1020.5mb 66f
Sun 10/19 11:00pm 3 5 mph 1020.4mb 61f
10:00pm 3 5 mph 1020.3mb 61f
9:00pm 5
mph
1020mb 63f
8:00pm 5
mph
1019.9mb 64f
7:00pm 3 5 mph 1019.3mb 66f
6:00pm 3 5 mph 1018.8mb 67f
5:00pm 5 7 mph 1018.6mb 68f
4:00pm 5 8 mph 1018.6mb 69f
3:00pm 6 9 mph 1018.6mb 69f
2:00pm 5 8 mph 1019.1mb 68f
1:00pm 8 10 mph 1019.6mb 65f
12:00pm 13 15 mph 1020mb 64f
11:00am 15 18 mph 1020.1mb 62f
10:00am 15 21 mph 1020.1mb 62f
9:00am 15 18 mph 1019.5mb 61f
8:00am 16 20 mph 1018.5mb 60f
7:00am 18 21 mph 1017.6mb 61f
6:00am 15 18 mph 1016.5mb 62f
5:00am 17 21 mph 1015.5mb 64f
4:00am 18 22 mph 1015.1mb 65f
3:00am 23 26 mph 1014.8mb 66f
2:00am 18 22 mph 1014.1mb 67f
1:00am 7 10 mph 1012.7mb 66f
12:00am 8 11 mph 1012.5mb 67f
Sat 10/18 11:00pm 7 9 mph 1012.4mb 69f
10:00pm 6 10 mph 1011.9mb 72f
9:00pm 7 8 mph 1011.3mb 73f
8:00pm 6 7 mph 1010.7mb 73f
7:00pm 5 6 mph 1010.1mb 75f
6:00pm 7 11 mph 1009.6mb 79f
5:00pm 9 15 mph 1009.3mb 81f
4:00pm 16 18 mph 1009.4mb 76f
3:00pm 15 20 mph 1009.4mb 76f
2:00pm 17 20 mph 1010.2mb 76f
1:00pm 16 18 mph 1010.9mb 75f
12:00pm 8 14 mph 1011.6mb 77f
11:00am 7 11 mph 1012.2mb 74f
10:00am 10 15 mph 1012.4mb 71f
9:00am 9 14 mph 1012.3mb 68f
8:00am 7 10 mph 1011.9mb 65f
7:00am 8 10 mph 1011.7mb 65f
6:00am 5 6 mph 1011.6mb 65f
5:00am 6 9 mph 1011.3mb 65f
4:00am 6 9 mph 1011.5mb 65f
3:00am 5 7 mph 1012mb 66f
2:00am 7 9 mph 1012.4mb 67f
1:00am 6 8 mph 1012.6mb 68f
12:00am 7 8 mph 1013mb 68f
Fri 10/17 11:00pm 7 8 mph 1013.3mb 68f
10:00pm 7 8 mph 1013.2mb 69f
9:00pm 6 7 mph 1013mb 69f
8:00pm 6 7 mph 1012.7mb 69f
7:00pm 6 7 mph 1012.7mb 71f
6:00pm 7 11 mph 1012.5mb 73f
5:00pm 13 15 mph 1012.5mb 73f
4:00pm 15
mph
1012.6mb 72f
3:00pm 11 14 mph 1012.9mb 71f
2:00pm 13 14 mph 1013.7mb 71f
1:00pm 10 14 mph 1014.7mb 70f
12:00pm 5 7 mph 1015.2mb 71f
11:00am 3 6 mph 1015.6mb 69f
10:00am 5 7 mph 1015.7mb 64f
9:00am 7 9 mph 1015.4mb 59f
8:00am 6 8 mph 1015mb 56f
7:00am 6 7 mph 1014.4mb 56f
6:00am 5 8 mph 1013.8mb 57f
5:00am 6 8 mph 1013.3mb 58f
4:00am 8 11 mph 1013mb 58f
3:00am 2 3 mph 1013.2mb 58f
2:00am 2 3 mph 1013.4mb 58f
1:00am 5 7 mph 1013.4mb 59f
12:00am 3 5 mph 1013.6mb 59f
Thu 10/16 11:00pm 3 5 mph 1013.7mb 60f